Time;durP1;ratioP1;P1;durP2;ratioP2;P2;SDS_P1;SDS_P2;PMS_P1;PMS_P2;Temp;Humidity;BMP_temperature;BMP_pressure;BME280_temperature;BME280_humidity;BME280_pressure;Samples;Min_cycle;Max_cycle;Signal;HPM_P1;HPM_P2
2022/10/06 00:00:40;;;;;;;1.40;0.20;;;15.10;99.90;;;;;;5055104;28;20198;-79
2022/10/06 00:03:08;;;;;;;0.40;0.20;;;15.10;99.90;;;;;;5073184;28;20427;-79
2022/10/06 00:05:34;;;;;;;0.30;0.20;;;15.00;99.90;;;;;;5073237;28;20450;-79
2022/10/06 00:08:01;;;;;;;0.43;0.20;;;15.00;99.90;;;;;;5072754;28;20432;-79
2022/10/06 00:10:27;;;;;;;0.60;0.20;;;15.00;99.90;;;;;;5073486;28;20183;-79
2022/10/06 00:12:52;;;;;;;1.53;0.10;;;15.00;99.90;;;;;;5093380;28;20512;-79
2022/10/06 00:15:21;;;;;;;1.37;0.10;;;15.10;99.90;;;;;;5093391;28;20185;-80
2022/10/06 00:17:47;;;;;;;0.30;0.20;;;15.00;99.90;;;;;;5093222;28;20239;-81
2022/10/06 00:20:13;;;;;;;0.77;0.20;;;15.00;99.90;;;;;;5093220;28;20410;-80
2022/10/06 00:22:44;;;;;;;0.40;0.20;;;15.00;99.90;;;;;;5075069;28;20626;-80
2022/10/06 00:25:11;;;;;;;0.30;0.20;;;15.00;99.90;;;;;;5093241;28;20409;-79
2022/10/06 00:27:40;;;;;;;0.30;0.20;;;15.00;99.90;;;;;;5093146;28;20429;-80
2022/10/06 00:30:11;;;;;;;0.80;0.20;;;14.90;99.90;;;;;;5093131;28;20784;-80
2022/10/06 00:32:38;;;;;;;0.50;0.10;;;15.00;99.90;;;;;;5093026;28;20579;-80
2022/10/06 00:35:05;;;;;;;0.43;0.20;;;14.90;99.90;;;;;;5093173;28;20759;-80
2022/10/06 00:37:36;;;;;;;1.03;0.10;;;14.90;99.90;;;;;;5074662;28;20817;-81
2022/10/06 00:40:08;;;;;;;0.40;0.20;;;14.90;99.90;;;;;;5093207;28;20435;-80
2022/10/06 00:42:47;;;;;;;0.83;0.20;;;14.90;99.90;;;;;;5093064;28;20415;-80
2022/10/06 00:45:14;;;;;;;0.50;0.20;;;14.90;99.90;;;;;;5092959;28;20407;-79
2022/10/06 00:47:40;;;;;;;0.33;0.20;;;14.90;99.90;;;;;;5092854;28;20493;-79
2022/10/06 00:50:07;;;;;;;0.57;0.20;;;14.90;99.90;;;;;;5096535;28;20416;-80
2022/10/06 00:52:32;;;;;;;0.30;0.20;;;14.90;99.90;;;;;;5096558;28;20514;-80
2022/10/06 00:54:58;;;;;;;1.27;0.20;;;14.80;99.90;;;;;;5096978;28;20439;-79
2022/10/06 00:57:25;;;;;;;0.77;0.20;;;14.80;99.90;;;;;;5096997;28;20524;-80
2022/10/06 00:59:51;;;;;;;0.60;0.20;;;14.80;99.90;;;;;;5096902;28;20494;-79
2022/10/06 01:02:26;;;;;;;1.13;0.20;;;14.80;99.90;;;;;;5096758;28;20507;-80
2022/10/06 01:04:55;;;;;;;0.53;0.10;;;14.80;99.90;;;;;;5096845;28;20164;-80
2022/10/06 01:07:23;;;;;;;0.67;0.20;;;14.70;99.90;;;;;;5096407;28;20415;-78
2022/10/06 01:09:49;;;;;;;0.30;0.20;;;14.70;99.90;;;;;;5096744;28;20414;-79
2022/10/06 01:12:15;;;;;;;0.73;0.20;;;14.70;99.90;;;;;;5096386;28;20490;-79
2022/10/06 01:14:41;;;;;;;1.43;0.20;;;14.70;99.90;;;;;;5096691;28;20168;-79
2022/10/06 01:17:19;;;;;;;1.53;0.20;;;14.70;99.90;;;;;;5096563;28;20476;-79
2022/10/06 01:19:49;;;;;;;1.00;0.20;;;14.70;99.90;;;;;;5096540;28;20439;-79
2022/10/06 01:22:18;;;;;;;0.43;0.10;;;14.80;99.90;;;;;;5096067;28;20409;-79
2022/10/06 01:24:46;;;;;;;0.80;0.20;;;14.80;99.90;;;;;;5096475;28;20422;-79
2022/10/06 01:27:14;;;;;;;0.67;0.20;;;14.70;99.90;;;;;;5096511;28;20421;-79
2022/10/06 01:29:40;;;;;;;0.30;0.20;;;14.70;99.90;;;;;;5096231;28;20449;-79
2022/10/06 01:32:06;;;;;;;0.33;0.20;;;14.60;99.90;;;;;;5096155;28;20473;-79
2022/10/06 01:34:31;;;;;;;0.40;0.20;;;14.60;99.90;;;;;;5096261;28;20417;-80
2022/10/06 01:36:57;;;;;;;1.50;0.20;;;14.60;99.90;;;;;;5095899;28;20507;-79
2022/10/06 01:39:22;;;;;;;0.53;0.20;;;14.50;99.90;;;;;;5096113;28;20185;-79
2022/10/06 01:41:48;;;;;;;0.50;0.20;;;14.40;99.90;;;;;;5095988;28;20183;-79
2022/10/06 01:44:13;;;;;;;0.30;0.20;;;14.40;99.90;;;;;;5095920;28;20252;-80
2022/10/06 01:46:39;;;;;;;0.50;0.10;;;14.40;99.90;;;;;;5096061;28;20166;-79
2022/10/06 01:49:04;;;;;;;2.67;0.20;;;14.40;99.90;;;;;;5096039;28;20172;-80
2022/10/06 01:51:30;;;;;;;0.50;0.20;;;14.30;99.90;;;;;;5095601;28;20258;-81
2022/10/06 01:53:58;;;;;;;0.53;0.10;;;14.30;99.90;;;;;;5077897;28;20627;-82
2022/10/06 01:56:24;;;;;;;1.27;0.33;;;14.20;99.90;;;;;;5095831;28;20185;-84
2022/10/06 01:58:49;;;;;;;0.33;0.20;;;14.00;99.90;;;;;;5095778;28;20417;-80
2022/10/06 02:01:15;;;;;;;0.63;0.20;;;14.00;99.90;;;;;;5076511;28;20263;-80
2022/10/06 02:03:40;;;;;;;1.47;0.20;;;14.00;99.90;;;;;;5095588;28;20172;-84
2022/10/06 02:06:07;;;;;;;0.30;0.20;;;13.90;99.90;;;;;;5077499;28;20172;-83
2022/10/06 02:08:34;;;;;;;0.43;0.10;;;13.90;99.90;;;;;;5095200;28;20530;-81
2022/10/06 02:11:04;;;;;;;1.43;0.20;;;13.80;99.90;;;;;;5095320;28;20466;-79
2022/10/06 02:13:30;;;;;;;1.37;0.20;;;13.80;99.90;;;;;;5095481;28;20430;-80
2022/10/06 02:15:57;;;;;;;0.87;0.20;;;13.70;99.90;;;;;;5095379;28;20399;-82
2022/10/06 02:18:22;;;;;;;0.50;0.20;;;13.70;99.90;;;;;;5070253;28;20533;-90
2022/10/06 02:20:48;;;;;;;1.27;0.20;;;13.70;99.90;;;;;;5067372;28;20478;-82
2022/10/06 02:23:13;;;;;;;0.43;0.10;;;13.60;99.90;;;;;;5090815;28;20211;-80
2022/10/06 02:25:39;;;;;;;0.77;0.20;;;13.60;99.90;;;;;;5094530;28;20184;-80
2022/10/06 02:28:04;;;;;;;0.60;0.20;;;13.50;99.90;;;;;;5076759;28;20244;-79
2022/10/06 02:30:30;;;;;;;2.90;0.27;;;13.50;99.90;;;;;;5094829;28;20172;-80
2022/10/06 02:32:55;;;;;;;0.40;0.20;;;13.50;99.90;;;;;;5094944;28;20169;-81
2022/10/06 02:35:21;;;;;;;3.40;0.30;;;13.50;99.90;;;;;;5093619;28;20646;-79
2022/10/06 02:37:47;;;;;;;0.90;0.20;;;13.50;99.90;;;;;;5092833;28;20164;-79
2022/10/06 02:40:12;;;;;;;0.60;0.20;;;13.50;99.90;;;;;;5094161;28;20751;-79
2022/10/06 02:42:38;;;;;;;1.93;0.20;;;13.50;99.90;;;;;;5094707;28;20209;-80
2022/10/06 02:45:05;;;;;;;1.47;0.70;;;13.50;99.90;;;;;;5093624;28;20168;-80
2022/10/06 02:47:31;;;;;;;2.90;0.20;;;13.50;99.90;;;;;;5094772;28;20207;-80
2022/10/06 02:50:00;;;;;;;0.63;0.30;;;13.50;99.90;;;;;;5094831;28;20427;-80
2022/10/06 02:52:33;;;;;;;4.10;0.20;;;13.50;99.90;;;;;;5094255;28;20465;-79
2022/10/06 02:55:00;;;;;;;1.27;0.20;;;13.50;99.90;;;;;;5094668;28;20453;-81
2022/10/06 02:57:26;;;;;;;2.67;0.20;;;13.50;99.90;;;;;;5094627;28;20421;-80
2022/10/06 02:59:52;;;;;;;1.07;0.20;;;13.50;99.90;;;;;;5094588;28;20776;-81
2022/10/06 03:02:17;;;;;;;1.90;0.63;;;13.50;99.90;;;;;;5094510;28;20183;-82
2022/10/06 03:04:43;;;;;;;0.50;0.20;;;13.50;99.90;;;;;;5094505;28;20263;-80
2022/10/06 03:07:08;;;;;;;1.83;0.20;;;13.50;99.90;;;;;;5094028;28;20166;-80
2022/10/06 03:09:33;;;;;;;1.17;0.20;;;13.50;99.90;;;;;;5094392;28;20196;-80
2022/10/06 03:11:59;;;;;;;0.90;0.20;;;13.50;99.90;;;;;;5094012;28;20702;-80
2022/10/06 03:14:27;;;;;;;4.27;0.20;;;13.40;99.90;;;;;;5094148;28;20172;-79
2022/10/06 03:16:55;;;;;;;0.83;0.20;;;13.40;99.90;;;;;;5094297;28;20268;-80
2022/10/06 03:19:21;;;;;;;2.40;0.20;;;13.40;99.90;;;;;;5094245;28;20414;-80
2022/10/06 03:21:47;;;;;;;0.90;0.20;;;13.30;99.90;;;;;;5093781;28;20418;-80
2022/10/06 03:24:13;;;;;;;3.00;0.30;;;13.30;99.90;;;;;;5094154;28;20533;-80
2022/10/06 03:26:41;;;;;;;1.00;0.20;;;13.30;99.90;;;;;;5094128;28;20165;-79
2022/10/06 03:29:07;;;;;;;1.47;0.20;;;13.20;99.90;;;;;;5075890;28;20422;-79
2022/10/06 03:31:33;;;;;;;1.23;0.30;;;13.20;99.90;;;;;;5093952;28;20564;-80
2022/10/06 03:33:59;;;;;;;0.30;0.20;;;13.10;99.90;;;;;;5094007;28;20995;-81
2022/10/06 03:36:27;;;;;;;0.73;0.20;;;13.10;99.90;;;;;;5093487;28;20172;-80
2022/10/06 03:38:52;;;;;;;4.30;0.27;;;13.10;99.90;;;;;;5093748;28;20185;-81
2022/10/06 03:41:21;;;;;;;1.23;0.20;;;13.00;99.90;;;;;;5093836;28;20418;-81
2022/10/06 03:43:48;;;;;;;2.93;0.40;;;13.00;99.90;;;;;;5093820;28;20180;-82
2022/10/06 03:46:17;;;;;;;1.70;0.20;;;13.10;99.90;;;;;;5093749;28;20394;-80
2022/10/06 03:48:42;;;;;;;2.20;0.30;;;13.10;99.90;;;;;;5075551;28;20431;-80
2022/10/06 03:51:20;;;;;;;2.30;0.20;;;13.00;99.90;;;;;;5093194;28;20456;-80
2022/10/06 03:53:48;;;;;;;2.43;0.20;;;13.00;99.90;;;;;;5093618;28;20629;-81
2022/10/06 03:56:20;;;;;;;3.93;0.20;;;13.00;99.90;;;;;;5093535;28;20556;-80
2022/10/06 03:58:50;;;;;;;4.30;0.20;;;13.00;99.90;;;;;;5093474;28;20423;-81
2022/10/06 04:01:17;;;;;;;2.23;0.33;;;13.00;99.90;;;;;;5093486;28;20408;-81
2022/10/06 04:03:43;;;;;;;3.27;0.40;;;13.00;99.90;;;;;;5093457;28;20457;-81
2022/10/06 04:06:16;;;;;;;0.80;0.30;;;13.10;99.90;;;;;;5093143;28;20410;-81
2022/10/06 04:08:43;;;;;;;2.07;0.30;;;13.10;99.90;;;;;;5093502;28;20427;-80
2022/10/06 04:11:11;;;;;;;4.20;1.07;;;13.00;99.90;;;;;;5093099;28;20477;-80
2022/10/06 04:13:38;;;;;;;2.10;0.53;;;13.00;99.90;;;;;;5093357;28;20400;-81
2022/10/06 04:16:16;;;;;;;1.40;0.20;;;12.90;99.90;;;;;;5093283;28;20486;-82
2022/10/06 04:18:42;;;;;;;1.23;0.20;;;12.80;99.90;;;;;;5093223;28;20448;-79
2022/10/06 04:21:08;;;;;;;2.47;0.10;;;12.90;99.90;;;;;;5092840;28;20414;-80
2022/10/06 04:23:35;;;;;;;3.20;0.43;;;12.90;99.90;;;;;;5092688;28;20409;-80
2022/10/06 04:26:04;;;;;;;2.63;0.23;;;12.80;99.90;;;;;;5075136;28;20229;-80
2022/10/06 04:28:30;;;;;;;2.43;0.23;;;12.80;99.90;;;;;;5093128;28;20507;-79
2022/10/06 04:30:56;;;;;;;4.20;0.20;;;12.70;99.90;;;;;;5093017;28;20453;-80
2022/10/06 04:33:22;;;;;;;1.10;0.20;;;12.70;99.90;;;;;;5093187;28;20179;-80
2022/10/06 04:35:55;;;;;;;4.90;0.40;;;12.60;99.90;;;;;;5093048;28;20410;-80
2022/10/06 04:38:21;;;;;;;3.50;0.60;;;12.60;99.90;;;;;;5092869;28;20162;-82
2022/10/06 04:40:46;;;;;;;2.60;0.20;;;12.50;99.90;;;;;;5092997;28;20805;-80
2022/10/06 04:43:12;;;;;;;2.80;0.43;;;12.50;99.90;;;;;;5092941;28;20638;-82
2022/10/06 04:45:37;;;;;;;8.00;0.40;;;12.60;99.90;;;;;;5075058;28;20213;-80
2022/10/06 04:48:03;;;;;;;4.23;0.60;;;12.50;99.90;;;;;;5092945;28;20179;-79
2022/10/06 04:50:28;;;;;;;4.37;0.30;;;12.60;99.90;;;;;;5092913;28;20623;-81
2022/10/06 04:52:54;;;;;;;4.33;0.43;;;12.60;99.90;;;;;;5092435;28;20204;-82
2022/10/06 04:55:19;;;;;;;3.73;0.73;;;12.60;99.90;;;;;;5092908;28;20219;-80
2022/10/06 04:57:45;;;;;;;2.30;0.30;;;12.60;99.90;;;;;;5092841;28;20189;-81
2022/10/06 05:00:24;;;;;;;1.37;0.20;;;12.60;99.90;;;;;;5092912;28;20188;-82
2022/10/06 05:02:51;;;;;;;3.67;0.20;;;12.50;99.90;;;;;;5092877;28;20195;-80
2022/10/06 05:05:17;;;;;;;1.57;0.20;;;12.40;99.90;;;;;;5092741;28;20474;-79
2022/10/06 05:07:44;;;;;;;2.93;0.20;;;12.50;99.90;;;;;;5092404;28;20414;-80
2022/10/06 05:10:10;;;;;;;3.70;0.30;;;12.50;99.90;;;;;;5092818;28;20185;-79
2022/10/06 05:12:35;;;;;;;1.80;0.20;;;12.50;99.90;;;;;;5092531;28;20835;-80
2022/10/06 05:15:00;;;;;;;1.40;0.20;;;12.50;99.90;;;;;;5092748;28;20650;-80
2022/10/06 05:17:26;;;;;;;3.13;0.30;;;12.50;99.90;;;;;;5092598;28;20257;-80
2022/10/06 05:19:52;;;;;;;3.77;0.50;;;12.50;99.90;;;;;;5092338;28;20185;-80
2022/10/06 05:22:18;;;;;;;5.07;1.27;;;12.40;99.90;;;;;;5092249;28;20416;-80
2022/10/06 05:24:43;;;;;;;3.37;1.13;;;12.40;99.90;;;;;;5092499;28;20250;-80
2022/10/06 05:27:09;;;;;;;1.43;0.30;;;12.40;99.90;;;;;;5092692;28;20256;-79
2022/10/06 05:29:34;;;;;;;6.83;0.33;;;12.40;99.90;;;;;;5092580;28;20178;-79
2022/10/06 05:31:59;;;;;;;2.70;0.43;;;12.40;99.90;;;;;;5092433;28;20229;-79
2022/10/06 05:34:25;;;;;;;1.80;0.50;;;12.40;99.90;;;;;;5074580;28;20182;-80
2022/10/06 05:36:50;;;;;;;5.93;0.20;;;12.40;99.90;;;;;;5094976;28;20184;-80
2022/10/06 05:39:19;;;;;;;1.13;0.40;;;12.30;99.90;;;;;;5095655;28;20549;-79
2022/10/06 05:41:44;;;;;;;2.27;0.50;;;12.30;99.90;;;;;;5077959;28;20187;-79
2022/10/06 05:44:10;;;;;;;2.20;0.70;;;12.30;99.90;;;;;;5096009;28;20475;-80
2022/10/06 05:46:35;;;;;;;3.47;0.40;;;12.30;99.90;;;;;;5095952;28;20254;-80
2022/10/06 05:49:04;;;;;;;3.27;0.70;;;12.20;99.90;;;;;;5095855;28;20624;-80
2022/10/06 05:51:31;;;;;;;2.87;0.43;;;12.20;99.90;;;;;;5095370;28;20676;-80
2022/10/06 05:53:58;;;;;;;7.03;0.60;;;12.20;99.90;;;;;;5095888;28;20419;-80
2022/10/06 05:56:29;;;;;;;5.00;0.47;;;12.20;99.90;;;;;;5095770;28;20760;-79
2022/10/06 05:58:56;;;;;;;1.23;0.33;;;12.30;99.90;;;;;;5095709;28;20416;-81
2022/10/06 06:01:27;;;;;;;2.33;0.27;;;12.30;99.90;;;;;;5095664;28;20420;-80
2022/10/06 06:04:01;;;;;;;4.10;0.30;;;12.30;99.90;;;;;;5095678;28;20447;-80
2022/10/06 06:06:39;;;;;;;1.03;0.30;;;12.30;99.90;;;;;;5095345;28;20415;-81
2022/10/06 06:09:13;;;;;;;6.53;0.50;;;12.30;99.90;;;;;;5095548;28;20416;-82
2022/10/06 06:11:41;;;;;;;2.47;0.20;;;12.40;99.90;;;;;;5095283;28;20465;-81
2022/10/06 06:14:09;;;;;;;1.23;0.20;;;12.40;99.90;;;;;;5095345;28;20444;-80
2022/10/06 06:16:37;;;;;;;5.13;0.90;;;12.40;99.90;;;;;;5095444;28;20493;-82
2022/10/06 06:19:04;;;;;;;4.03;1.20;;;12.40;99.90;;;;;;5095439;28;20496;-80
2022/10/06 06:21:30;;;;;;;3.30;0.53;;;12.50;99.90;;;;;;5095043;28;20408;-81
2022/10/06 06:23:59;;;;;;;2.20;0.50;;;12.60;99.90;;;;;;5095319;28;20555;-80
2022/10/06 06:26:29;;;;;;;5.10;0.40;;;12.60;99.90;;;;;;5095227;28;20169;-83
2022/10/06 06:29:02;;;;;;;2.53;0.30;;;12.80;99.90;;;;;;5095203;28;20410;-82
2022/10/06 06:31:33;;;;;;;2.17;0.30;;;12.80;99.90;;;;;;5095091;28;20465;-82
2022/10/06 06:34:01;;;;;;;5.90;0.40;;;13.00;99.90;;;;;;5094968;28;20403;-83
2022/10/06 06:36:35;;;;;;;3.70;0.60;;;14.50;1.00;;;;;;5094676;28;20457;-80
2022/10/06 06:39:04;;;;;;;5.10;0.30;;;15.60;1.00;;;;;;5095073;28;20893;-82
2022/10/06 06:41:32;;;;;;;2.10;0.43;;;16.10;99.90;;;;;;5094974;28;20411;-82
2022/10/06 06:43:59;;;;;;;2.83;0.40;;;16.50;1.00;;;;;;5094696;28;20922;-83
2022/10/06 06:46:26;;;;;;;2.60;0.40;;;16.80;1.00;;;;;;5094401;28;20432;-81
2022/10/06 06:49:03;;;;;;;1.33;0.30;;;16.70;1.00;;;;;;5094707;28;20486;-78
2022/10/06 06:51:33;;;;;;;2.83;0.77;;;16.30;1.00;;;;;;5094216;28;20813;-79
2022/10/06 06:54:01;;;;;;;4.57;0.30;;;15.30;1.00;;;;;;5094761;28;20468;-80
2022/10/06 06:56:27;;;;;;;6.17;0.73;;;15.00;6.50;;;;;;5094599;28;20404;-80
2022/10/06 06:58:53;;;;;;;4.07;0.53;;;15.60;1.00;;;;;;5094643;28;20808;-78
2022/10/06 07:01:24;;;;;;;5.30;0.60;;;16.00;99.90;;;;;;5094569;28;20466;-79
2022/10/06 07:03:57;;;;;;;4.33;0.30;;;16.60;1.00;;;;;;5094508;28;20159;-81
2022/10/06 07:06:25;;;;;;;4.67;0.40;;;17.40;99.90;;;;;;5094171;28;20416;-80
2022/10/06 07:08:51;;;;;;;2.67;0.27;;;17.80;99.90;;;;;;5076541;28;20436;-80
2022/10/06 07:11:23;;;;;;;0.87;0.20;;;18.00;99.90;;;;;;5094207;28;20484;-80
2022/10/06 07:14:10;;;;;;;4.37;0.40;;;18.00;99.90;;;;;;5094266;28;20410;-80
2022/10/06 07:25:11;;;;;;;1.63;0.43;;;18.50;99.90;;;;;;5094213;28;20417;-80
2022/10/06 07:27:41;;;;;;;3.70;0.30;;;18.90;99.90;;;;;;5094224;28;20394;-79
2022/10/06 07:30:28;;;;;;;3.50;0.60;;;18.80;99.90;;;;;;5094016;28;20479;-79
2022/10/06 07:32:54;;;;;;;2.00;0.50;;;18.70;99.90;;;;;;5093371;28;20476;-82
2022/10/06 07:35:21;;;;;;;3.00;0.60;;;19.20;99.90;;;;;;5093854;28;20765;-80
2022/10/06 07:37:49;;;;;;;5.50;0.57;;;19.30;99.90;;;;;;5093487;28;20425;-80
2022/10/06 07:40:16;;;;;;;5.03;0.63;;;19.30;99.90;;;;;;5093880;28;20462;-79
2022/10/06 07:42:47;;;;;;;3.80;0.20;;;19.60;99.90;;;;;;5093822;28;20432;-81
2022/10/06 07:45:36;;;;;;;0.93;0.20;;;19.50;99.90;;;;;;5093732;28;20890;-79
2022/10/06 07:48:22;;;;;;;3.37;0.70;;;20.20;99.90;;;;;;5093701;28;20492;-81
2022/10/06 07:50:49;;;;;;;2.33;0.30;;;20.30;99.90;;;;;;5093276;28;20829;-82
2022/10/06 07:53:17;;;;;;;3.50;0.60;;;20.70;99.90;;;;;;5093664;28;20424;-80
2022/10/06 07:55:45;;;;;;;2.37;0.40;;;20.40;99.90;;;;;;5093465;28;20409;-81
2022/10/06 07:58:12;;;;;;;6.30;0.70;;;20.10;99.90;;;;;;5092835;28;20479;-80
2022/10/06 08:00:38;;;;;;;1.67;0.20;;;20.50;99.90;;;;;;5093440;28;20444;-81
2022/10/06 08:03:04;;;;;;;1.43;0.30;;;21.20;99.90;;;;;;5093458;28;20878;-82
2022/10/06 08:05:29;;;;;;;10.00;0.97;;;21.20;99.90;;;;;;5093096;28;20442;-81
2022/10/06 08:07:55;;;;;;;4.57;0.20;;;21.60;99.90;;;;;;5093407;28;20176;-81
2022/10/06 08:10:21;;;;;;;4.57;0.87;;;21.40;99.90;;;;;;5093288;28;20180;-80
2022/10/06 08:12:46;;;;;;;3.60;0.90;;;21.70;99.90;;;;;;5093048;28;20555;-80
2022/10/06 08:15:12;;;;;;;2.90;0.20;;;21.50;99.90;;;;;;5093309;28;20188;-80
2022/10/06 08:17:38;;;;;;;3.47;0.30;;;21.10;99.90;;;;;;5093302;28;20172;-81
2022/10/06 08:20:06;;;;;;;3.90;0.40;;;21.20;99.90;;;;;;5093210;28;20168;-80
2022/10/06 08:22:32;;;;;;;5.53;0.50;;;21.60;99.90;;;;;;5074787;28;20557;-81
2022/10/06 08:24:58;;;;;;;3.50;0.57;;;21.60;99.90;;;;;;5093142;28;20426;-80
2022/10/06 08:27:28;;;;;;;2.60;0.53;;;20.50;99.90;;;;;;5093131;28;20254;-80
2022/10/06 08:29:54;;;;;;;1.93;0.37;;;21.00;99.90;;;;;;5093155;28;20222;-79
2022/10/06 08:32:21;;;;;;;3.60;0.20;;;21.10;99.90;;;;;;5093063;28;20473;-81
2022/10/06 08:34:47;;;;;;;2.50;0.47;;;22.00;99.90;;;;;;5093104;28;20402;-81
2022/10/06 08:37:22;;;;;;;1.63;0.20;;;21.80;99.90;;;;;;5092709;28;20887;-80
2022/10/06 08:39:49;;;;;;;4.00;0.67;;;21.90;99.90;;;;;;5093084;28;20847;-80
2022/10/06 08:42:31;;;;;;;1.77;0.40;;;22.00;99.90;;;;;;5093008;28;20506;-80
2022/10/06 08:45:03;;;;;;;4.90;0.50;;;22.40;99.90;;;;;;5092939;28;20402;-80
2022/10/06 08:47:37;;;;;;;3.80;0.73;;;20.90;99.90;;;;;;5093303;28;20930;-81
2022/10/06 08:50:08;;;;;;;3.00;0.70;;;22.30;99.90;;;;;;5093013;28;20410;-81
2022/10/06 08:52:52;;;;;;;5.20;0.40;;;22.90;99.90;;;;;;5092527;28;20569;-81
2022/10/06 08:55:56;;;;;;;3.37;0.30;;;23.10;99.90;;;;;;5092972;28;20406;-82
2022/10/06 08:58:49;;;;;;;1.90;0.33;;;21.90;99.90;;;;;;5091998;28;20418;-80
2022/10/06 09:01:19;;;;;;;5.93;0.73;;;21.50;99.40;;;;;;5092863;28;20455;-81
2022/10/06 09:03:47;;;;;;;3.53;0.77;;;21.20;99.90;;;;;;5092880;28;20467;-80
2022/10/06 09:06:36;;;;;;;5.03;1.03;;;22.70;99.90;;;;;;5092485;28;20491;-81
2022/10/06 09:09:42;;;;;;;3.80;0.60;;;22.90;99.90;;;;;;5092889;28;20482;-83
2022/10/06 09:12:26;;;;;;;3.37;0.30;;;22.30;98.70;;;;;;5096510;28;20469;-81
2022/10/06 09:15:01;;;;;;;2.10;0.70;;;23.20;99.90;;;;;;5096778;28;20415;-82
2022/10/06 09:17:37;;;;;;;3.37;0.37;;;24.00;99.90;;;;;;5096663;28;20773;-82
2022/10/06 09:20:09;;;;;;;1.43;0.40;;;23.20;94.80;;;;;;5096608;28;20406;-81
2022/10/06 09:22:36;;;;;;;2.33;0.20;;;23.30;94.10;;;;;;5096506;28;20402;-81
2022/10/06 09:25:21;;;;;;;3.03;0.70;;;23.70;95.70;;;;;;5096466;28;20418;-82
2022/10/06 09:27:53;;;;;;;3.53;0.40;;;23.80;92.30;;;;;;5096353;28;20410;-81
2022/10/06 09:30:19;;;;;;;2.40;0.50;;;23.50;90.70;;;;;;5096390;28;20559;-83
2022/10/06 09:33:04;;;;;;;5.23;0.80;;;23.30;91.90;;;;;;5096355;28;21036;-80
2022/10/06 09:35:31;;;;;;;3.67;0.20;;;21.20;74.90;;;;;;5095965;28;20160;-81
2022/10/06 09:38:02;;;;;;;3.73;0.73;;;22.20;87.70;;;;;;5096273;28;20413;-81
2022/10/06 09:40:52;;;;;;;4.70;0.70;;;21.40;87.80;;;;;;5096236;28;20417;-81
2022/10/06 09:43:27;;;;;;;3.60;0.30;;;22.40;92.70;;;;;;5096136;28;20890;-80
2022/10/06 09:45:54;;;;;;;4.57;0.47;;;21.00;82.90;;;;;;5096192;28;20401;-82
2022/10/06 09:48:25;;;;;;;2.63;0.47;;;22.50;94.30;;;;;;5096045;28;20429;-81
2022/10/06 09:51:07;;;;;;;3.70;0.30;;;22.10;85.20;;;;;;5095542;28;20482;-81
2022/10/06 09:53:33;;;;;;;4.70;0.50;;;20.70;74.30;;;;;;5095879;28;20917;-82
2022/10/06 09:56:03;;;;;;;3.97;1.03;;;21.60;81.60;;;;;;5095909;28;20443;-82
2022/10/06 09:58:36;;;;;;;5.10;0.30;;;22.40;85.50;;;;;;5095860;28;20161;-80
2022/10/06 10:01:06;;;;;;;2.70;0.40;;;22.80;94.00;;;;;;5095883;28;20766;-80
2022/10/06 10:03:52;;;;;;;5.30;0.97;;;21.70;79.00;;;;;;5095734;28;20410;-80
2022/10/06 10:06:27;;;;;;;2.23;0.50;;;23.80;89.50;;;;;;5095390;28;20426;-82
2022/10/06 10:09:12;;;;;;;1.60;0.33;;;24.40;86.50;;;;;;5095723;28;20500;-82
2022/10/06 10:14:21;;;;;;;2.27;0.50;;;21.20;55.60;;;;;;5095613;28;20412;-81
2022/10/06 10:16:48;;;;;;;4.90;0.50;;;23.10;68.20;;;;;;5095472;28;20504;-79
2022/10/06 10:19:26;;;;;;;3.90;0.87;;;23.70;67.00;;;;;;5095474;28;20172;-81
2022/10/06 10:21:55;;;;;;;3.07;0.40;;;24.80;75.90;;;;;;5094222;28;20808;-82
2022/10/06 10:24:47;;;;;;;6.63;0.40;;;23.80;60.60;;;;;;5095360;28;20410;-81
2022/10/06 10:27:51;;;;;;;2.60;0.60;;;23.00;58.10;;;;;;5026800;28;20497;-83
2022/10/06 10:30:17;;;;;;;5.60;0.60;;;21.60;52.60;;;;;;5092412;28;20933;-81
2022/10/06 10:33:04;;;;;;;2.57;0.50;;;21.20;56.90;;;;;;5095081;28;20470;-82
2022/10/06 10:35:36;;;;;;;2.40;0.30;;;20.70;62.30;;;;;;5094752;28;20169;-82
2022/10/06 10:38:07;;;;;;;7.33;1.13;;;21.60;63.50;;;;;;5095049;28;20816;-82
2022/10/06 10:40:41;;;;;;;2.73;0.60;;;21.60;69.20;;;;;;5094936;28;20406;-82
2022/10/06 10:43:21;;;;;;;2.47;0.40;;;21.80;63.00;;;;;;5095041;28;20406;-82
2022/10/06 10:45:51;;;;;;;1.80;0.20;;;21.90;59.60;;;;;;5094870;28;20406;-81
2022/10/06 10:48:33;;;;;;;4.53;0.40;;;20.90;53.50;;;;;;5094844;28;20403;-81
2022/10/06 10:51:23;;;;;;;2.20;0.53;;;22.20;59.20;;;;;;5094404;28;20398;-82
2022/10/06 10:53:59;;;;;;;2.93;0.40;;;22.30;59.10;;;;;;5094871;28;20433;-82
2022/10/06 10:56:25;;;;;;;2.10;0.33;;;22.70;59.20;;;;;;5094687;28;20394;-82
2022/10/06 10:59:15;;;;;;;3.73;0.63;;;21.80;51.50;;;;;;5094693;28;20449;-82
2022/10/06 11:02:00;;;;;;;3.53;0.50;;;20.90;54.10;;;;;;5094620;28;20405;-80
2022/10/06 11:04:26;;;;;;;1.07;0.30;;;20.40;53.10;;;;;;5094564;28;20434;-81
2022/10/06 11:07:22;;;;;;;5.50;0.60;;;19.90;52.60;;;;;;5094185;28;20406;-80
2022/10/06 11:10:03;;;;;;;1.70;0.50;;;20.00;54.80;;;;;;5094357;28;20510;-80
2022/10/06 11:13:04;;;;;;;5.20;0.40;;;20.20;57.20;;;;;;5094034;28;20969;-81
2022/10/06 11:15:56;;;;;;;3.87;0.40;;;21.20;56.70;;;;;;5094290;28;20409;-81
2022/10/06 11:18:41;;;;;;;5.23;0.60;;;22.40;57.80;;;;;;5094239;28;20815;-79
2022/10/06 11:21:41;;;;;;;4.03;0.30;;;22.50;51.10;;;;;;5093822;28;20415;-81
2022/10/06 11:24:24;;;;;;;3.07;0.50;;;23.70;55.50;;;;;;5094123;28;20445;-81
2022/10/06 11:27:08;;;;;;;1.17;0.50;;;24.10;54.80;;;;;;5094152;28;20402;-81
2022/10/06 11:29:59;;;;;;;3.03;0.67;;;24.50;54.40;;;;;;5094016;28;20406;-81
2022/10/06 11:32:35;;;;;;;3.63;0.30;;;24.80;53.30;;;;;;5075726;28;20470;-81
2022/10/06 11:35:02;;;;;;;2.47;0.37;;;24.80;50.50;;;;;;5093603;28;20437;-82
2022/10/06 11:37:50;;;;;;;3.70;0.30;;;25.30;52.10;;;;;;5093911;28;20814;-81
2022/10/06 11:40:30;;;;;;;1.13;0.30;;;24.90;46.60;;;;;;5093809;28;20421;-82
2022/10/06 11:43:03;;;;;;;4.10;0.30;;;24.30;39.70;;;;;;5093769;28;20410;-81
2022/10/06 11:45:59;;;;;;;2.70;0.70;;;24.10;37.10;;;;;;5093581;28;20922;-81
2022/10/06 11:48:28;;;;;;;4.23;0.30;;;23.90;37.70;;;;;;5058118;28;20804;-81
2022/10/06 11:50:55;;;;;;;1.57;0.30;;;23.80;36.80;;;;;;5093185;28;20421;-81
2022/10/06 11:53:38;;;;;;;2.33;0.37;;;23.60;37.00;;;;;;5093568;28;20517;-81
2022/10/06 11:56:15;;;;;;;3.63;0.83;;;24.10;40.50;;;;;;5093602;28;20399;-80
2022/10/06 11:58:50;;;;;;;3.30;0.30;;;23.90;38.40;;;;;;5093536;28;20476;-80
2022/10/06 12:01:33;;;;;;;2.50;0.50;;;23.80;34.80;;;;;;5092594;28;20831;-82
2022/10/06 12:04:08;;;;;;;2.13;0.30;;;23.80;29.50;;;;;;5093466;28;20415;-82
2022/10/06 12:06:46;;;;;;;1.67;0.30;;;24.00;31.70;;;;;;5092990;28;20406;-81
2022/10/06 12:09:39;;;;;;;1.83;0.37;;;23.90;29.40;;;;;;5093400;28;20410;-81
2022/10/06 12:12:14;;;;;;;3.37;0.40;;;23.60;40.30;;;;;;5093123;28;20474;-81
2022/10/06 12:15:08;;;;;;;1.90;0.20;;;23.60;29.80;;;;;;5093128;28;20890;-81
2022/10/06 12:17:45;;;;;;;1.13;0.30;;;23.50;28.60;;;;;;5093156;28;20406;-81
2022/10/06 12:20:20;;;;;;;1.80;0.20;;;23.40;28.10;;;;;;5092856;28;20497;-80
2022/10/06 12:22:54;;;;;;;2.10;0.20;;;23.00;25.10;;;;;;5093176;28;20409;-80
2022/10/06 12:25:31;;;;;;;3.13;0.30;;;23.00;26.90;;;;;;5093194;28;20413;-81
2022/10/06 12:28:29;;;;;;;4.23;1.03;;;22.30;21.90;;;;;;5093296;28;20504;-81
2022/10/06 12:31:24;;;;;;;1.53;0.20;;;21.90;22.80;;;;;;5093095;28;20480;-81
2022/10/06 12:33:49;;;;;;;0.77;0.30;;;20.60;20.00;;;;;;5093016;28;20418;-80
2022/10/06 12:36:20;;;;;;;1.60;0.33;;;20.00;22.80;;;;;;5092604;28;20416;-82
2022/10/06 12:39:20;;;;;;;4.47;0.50;;;19.40;23.40;;;;;;5093006;28;20636;-81
2022/10/06 12:42:23;;;;;;;3.60;0.50;;;19.40;26.00;;;;;;5092961;28;20418;-82
2022/10/06 12:44:50;;;;;;;3.20;0.63;;;19.60;26.50;;;;;;5094241;28;20402;-80
2022/10/06 12:47:37;;;;;;;2.63;0.20;;;20.10;27.70;;;;;;5097130;28;20410;-81
2022/10/06 12:50:15;;;;;;;4.47;0.50;;;20.40;27.40;;;;;;5096681;28;20413;-81
2022/10/06 12:52:53;;;;;;;1.80;0.23;;;20.90;28.70;;;;;;5096962;28;20552;-82
2022/10/06 12:55:38;;;;;;;2.13;0.47;;;19.90;23.50;;;;;;5096990;28;20413;-82
2022/10/06 12:58:16;;;;;;;2.93;0.37;;;19.60;24.50;;;;;;5096986;28;20809;-81
2022/10/06 13:00:42;;;;;;;1.70;0.80;;;19.30;23.90;;;;;;5096904;28;20497;-80
2022/10/06 13:03:17;;;;;;;3.87;0.50;;;19.20;25.80;;;;;;5096407;28;20437;-80
2022/10/06 13:05:49;;;;;;;4.40;0.73;;;19.10;26.50;;;;;;5096181;28;20964;-81
2022/10/06 13:08:26;;;;;;;3.30;0.30;;;18.90;28.70;;;;;;5096548;28;20496;-81
2022/10/06 13:11:28;;;;;;;3.47;0.60;;;18.80;31.20;;;;;;5096113;28;20448;-81
2022/10/06 13:14:07;;;;;;;1.63;0.30;;;18.50;28.00;;;;;;5096477;28;20439;-80
2022/10/06 13:16:39;;;;;;;2.90;0.40;;;18.50;27.70;;;;;;5096434;28;20408;-80
2022/10/06 13:19:17;;;;;;;0.80;0.40;;;18.60;26.70;;;;;;5096356;28;20420;-80
2022/10/06 13:21:43;;;;;;;2.40;0.30;;;18.70;23.90;;;;;;5095965;28;20455;-80